createdAt,value
2019-02-24T00:01:51.675Z,44.37
2019-02-24T00:04:24.523Z,44.80
2019-02-24T00:06:57.460Z,44.10
2019-02-24T00:09:30.344Z,45.50
2019-02-24T00:12:03.255Z,41.70
2019-02-24T00:14:36.207Z,44.33
2019-02-24T00:17:09.026Z,46.50
2019-02-24T00:19:41.890Z,49.03
2019-02-24T00:22:14.806Z,45.40
2019-02-24T00:24:47.703Z,48.73
2019-02-24T00:27:20.550Z,47.03
2019-02-24T00:29:53.579Z,47.43
2019-02-24T00:32:26.357Z,44.47
2019-02-24T00:35:02.197Z,47.23
2019-02-24T00:37:35.071Z,44.30
2019-02-24T00:40:07.986Z,45.30
2019-02-24T00:42:40.921Z,42.53
2019-02-24T00:45:13.776Z,41.13
2019-02-24T00:47:46.627Z,37.27
2019-02-24T00:50:19.350Z,40.67
2019-02-24T00:52:52.191Z,38.40
2019-02-24T00:55:24.957Z,40.70
2019-02-24T00:57:57.790Z,37.10
2019-02-24T01:00:30.536Z,38.73
2019-02-24T01:03:03.384Z,33.73
2019-02-24T01:05:36.426Z,34.50
2019-02-24T01:08:09.292Z,30.40
2019-02-24T01:10:42.099Z,30.83
2019-02-24T01:13:14.918Z,30.33
2019-02-24T01:15:47.965Z,29.93
2019-02-24T01:18:20.906Z,28.23
2019-02-24T01:20:53.687Z,33.70
2019-02-24T01:23:27.059Z,30.87
2019-02-24T01:25:59.770Z,31.40
2019-02-24T01:28:32.637Z,32.07
2019-02-24T01:31:05.494Z,30.70
2019-02-24T01:33:38.354Z,27.93
2019-02-24T01:36:11.475Z,31.00
2019-02-24T01:38:44.336Z,28.40
2019-02-24T01:41:17.079Z,28.53
2019-02-24T01:43:49.809Z,26.33
2019-02-24T01:46:22.806Z,28.00
2019-02-24T01:48:55.567Z,26.37
2019-02-24T01:51:28.359Z,27.63
2019-02-24T01:54:01.172Z,26.20
2019-02-24T01:56:34.048Z,26.73
2019-02-24T01:59:06.941Z,26.20
2019-02-24T02:01:39.742Z,25.60
2019-02-24T02:04:12.525Z,24.53
2019-02-24T02:06:45.430Z,25.87
2019-02-24T02:09:18.375Z,24.60
2019-02-24T02:11:52.044Z,26.10
2019-02-24T02:14:24.799Z,25.83
2019-02-24T02:16:57.580Z,26.60
2019-02-24T02:19:30.430Z,25.20
2019-02-24T02:22:03.329Z,26.23
2019-02-24T02:24:36.214Z,28.30
2019-02-24T02:27:09.124Z,25.90
2019-02-24T02:29:42.033Z,27.10
2019-02-24T02:32:14.858Z,26.17
2019-02-24T02:34:47.777Z,27.77
2019-02-24T02:37:20.551Z,26.17
2019-02-24T02:39:53.597Z,26.03
2019-02-24T02:42:26.577Z,25.70
2019-02-24T02:44:59.360Z,27.40
2019-02-24T02:47:32.203Z,26.20
2019-02-24T02:50:05.217Z,25.87
2019-02-24T02:52:38.064Z,25.73
2019-02-24T02:55:11.076Z,24.17
2019-02-24T02:57:43.933Z,25.87
2019-02-24T03:00:33.834Z,25.73
2019-02-24T03:03:06.536Z,23.93
2019-02-24T03:05:40.957Z,25.10
2019-02-24T03:08:15.265Z,24.50
2019-02-24T03:10:48.094Z,25.67
2019-02-24T03:13:20.937Z,22.80
2019-02-24T03:15:53.718Z,25.10
2019-02-24T03:18:28.263Z,23.33
2019-02-24T03:21:01.132Z,27.20
2019-02-24T03:23:34.119Z,23.80
2019-02-24T03:26:06.929Z,26.80
2019-02-24T03:28:39.787Z,25.40
2019-02-24T03:31:12.558Z,26.30
2019-02-24T03:33:45.409Z,28.27
2019-02-24T03:36:18.164Z,27.73
2019-02-24T03:38:51.008Z,27.77
2019-02-24T03:41:23.860Z,27.63
2019-02-24T03:43:56.747Z,29.73
2019-02-24T03:46:29.492Z,28.23
2019-02-24T03:49:02.298Z,27.67
2019-02-24T03:51:35.249Z,27.83
2019-02-24T03:54:10.600Z,29.47
2019-02-24T03:56:43.297Z,29.87
2019-02-24T03:59:16.007Z,29.53
2019-02-24T04:01:48.702Z,29.53
2019-02-24T04:04:22.022Z,29.90
2019-02-24T04:06:54.710Z,31.53
2019-02-24T04:09:27.845Z,27.80
2019-02-24T04:12:00.580Z,28.03
2019-02-24T04:14:33.363Z,29.80
2019-02-24T04:17:06.276Z,30.43
2019-02-24T04:19:40.064Z,31.53
2019-02-24T04:22:12.996Z,30.73
2019-02-24T04:24:45.878Z,31.30
2019-02-24T04:27:18.641Z,32.23
2019-02-24T04:29:51.388Z,31.80
2019-02-24T04:32:24.204Z,29.57
2019-02-24T04:34:56.986Z,28.87
2019-02-24T04:37:29.731Z,28.93
2019-02-24T04:40:02.544Z,30.20
2019-02-24T04:42:36.454Z,29.63
2019-02-24T04:45:09.360Z,31.03
2019-02-24T04:47:42.164Z,29.57
2019-02-24T04:50:14.887Z,30.10
2019-02-24T04:52:47.743Z,29.53
2019-02-24T04:55:20.537Z,30.20
2019-02-24T04:57:53.283Z,31.60
2019-02-24T05:00:26.119Z,32.17
2019-02-24T05:02:58.920Z,32.40
2019-02-24T05:05:31.753Z,31.70
2019-02-24T05:08:04.955Z,30.77
2019-02-24T05:10:38.009Z,31.03
2019-02-24T05:13:10.929Z,30.03
2019-02-24T05:15:43.827Z,28.40
2019-02-24T05:18:16.588Z,30.47
2019-02-24T05:20:49.359Z,30.77
2019-02-24T05:23:22.092Z,30.80
2019-02-24T05:25:54.935Z,29.87
2019-02-24T05:28:27.668Z,31.07
2019-02-24T05:31:00.404Z,30.93
2019-02-24T05:33:33.179Z,29.97
2019-02-24T05:36:06.052Z,30.30
2019-02-24T05:38:38.816Z,27.87
2019-02-24T05:41:11.661Z,28.30
2019-02-24T05:43:44.405Z,28.07
2019-02-24T05:46:17.192Z,28.07
2019-02-24T05:48:49.974Z,27.90
2019-02-24T05:51:26.917Z,28.23
2019-02-24T05:54:01.186Z,27.33
2019-02-24T05:56:35.525Z,26.03
2019-02-24T05:59:08.306Z,28.23
2019-02-24T06:01:41.149Z,28.63
2019-02-24T06:04:13.840Z,26.83
2019-02-24T06:06:46.723Z,27.10
2019-02-24T06:09:19.599Z,27.30
2019-02-24T06:11:52.382Z,26.83
2019-02-24T06:14:25.245Z,27.30
2019-02-24T06:16:58.056Z,27.43
2019-02-24T06:19:30.728Z,25.43
2019-02-24T06:22:03.506Z,28.23
2019-02-24T06:24:36.360Z,25.53
2019-02-24T06:27:09.141Z,27.43
2019-02-24T06:29:41.969Z,26.97
2019-02-24T06:32:14.716Z,26.00
2019-02-24T06:34:47.493Z,26.50
2019-02-24T06:37:20.233Z,25.83
2019-02-24T06:39:52.946Z,27.97
2019-02-24T06:42:25.650Z,26.17
2019-02-24T06:44:58.418Z,26.07
2019-02-24T06:47:31.141Z,25.63
2019-02-24T06:50:04.008Z,26.67
2019-02-24T06:52:36.815Z,27.27
2019-02-24T06:55:09.698Z,27.17
2019-02-24T06:57:42.504Z,25.70
2019-02-24T07:00:15.262Z,27.73
2019-02-24T07:02:48.175Z,26.47
2019-02-24T07:05:21.171Z,26.97
2019-02-24T07:07:54.067Z,26.73
2019-02-24T07:10:29.239Z,26.47
2019-02-24T07:13:08.757Z,27.17
2019-02-24T07:15:42.631Z,27.30
2019-02-24T07:18:18.359Z,26.40
2019-02-24T07:20:51.150Z,26.87
2019-02-24T07:23:23.919Z,27.03
2019-02-24T07:25:56.660Z,27.03
2019-02-24T07:28:29.528Z,26.63
2019-02-24T07:31:02.327Z,28.87
2019-02-24T07:33:41.026Z,26.83
2019-02-24T07:36:18.926Z,28.40
2019-02-24T07:38:51.736Z,28.13
2019-02-24T07:41:24.596Z,27.17
2019-02-24T07:43:57.420Z,27.57
2019-02-24T07:46:31.266Z,25.23
2019-02-24T07:49:04.173Z,26.63
2019-02-24T07:51:37.244Z,26.37
2019-02-24T07:54:10.167Z,26.40
2019-02-24T07:56:43.040Z,26.73
2019-02-24T07:59:15.831Z,25.67
2019-02-24T08:01:49.005Z,26.10
2019-02-24T08:04:21.880Z,24.53
2019-02-24T08:06:54.834Z,26.10
2019-02-24T08:09:27.954Z,24.13
2019-02-24T08:12:00.951Z,24.93
2019-02-24T08:14:33.813Z,24.27
2019-02-24T08:17:06.608Z,25.77
2019-02-24T08:19:39.538Z,24.13
2019-02-24T08:22:13.050Z,23.03
2019-02-24T08:24:47.087Z,24.67
2019-02-24T08:27:22.809Z,24.63
2019-02-24T08:29:55.910Z,25.53
2019-02-24T08:32:30.482Z,24.40
2019-02-24T08:35:03.314Z,25.43
2019-02-24T08:37:36.224Z,27.07
2019-02-24T08:40:09.826Z,26.53
2019-02-24T08:42:42.751Z,26.47
2019-02-24T08:45:15.591Z,25.47
2019-02-24T08:47:48.627Z,27.63
2019-02-24T08:50:21.482Z,25.07
2019-02-24T08:52:54.627Z,28.07
2019-02-24T08:55:27.728Z,28.07
2019-02-24T08:58:00.610Z,27.37
2019-02-24T09:00:33.599Z,28.30
2019-02-24T09:03:06.732Z,27.27
2019-02-24T09:05:41.123Z,27.90
2019-02-24T09:08:17.188Z,27.87
2019-02-24T09:10:51.605Z,28.93
2019-02-24T09:13:37.875Z,27.40
2019-02-24T09:16:13.726Z,29.07
2019-02-24T09:18:46.871Z,27.73
2019-02-24T09:21:27.250Z,29.57
2019-02-24T09:24:00.070Z,25.37
2019-02-24T09:26:33.110Z,26.27
2019-02-24T09:29:09.185Z,26.00
2019-02-24T09:31:45.315Z,24.07
2019-02-24T09:34:18.067Z,25.47
2019-02-24T09:36:51.527Z,23.30
2019-02-24T09:39:24.511Z,23.10
2019-02-24T09:42:08.970Z,21.80
2019-02-24T09:44:41.755Z,21.57
2019-02-24T09:47:14.645Z,21.20
2019-02-24T09:49:47.460Z,22.03
2019-02-24T09:52:20.397Z,20.27
2019-02-24T09:54:53.236Z,24.20
2019-02-24T09:57:26.203Z,27.47
2019-02-24T09:59:59.078Z,26.87
2019-02-24T10:02:33.158Z,23.10
2019-02-24T10:05:06.809Z,24.13
2019-02-24T10:07:40.212Z,20.90
2019-02-24T10:10:13.284Z,24.10
2019-02-24T10:12:46.081Z,21.90
2019-02-24T10:15:18.909Z,24.03
2019-02-24T10:17:54.802Z,22.27
2019-02-24T10:20:27.812Z,21.07
2019-02-24T10:23:00.770Z,22.60
2019-02-24T10:25:33.669Z,22.03
2019-02-24T10:28:06.504Z,22.30
2019-02-24T10:30:39.368Z,23.57
2019-02-24T10:33:12.320Z,22.70
2019-02-24T10:35:45.234Z,22.67
2019-02-24T10:38:18.279Z,22.93
2019-02-24T10:40:51.104Z,24.23
2019-02-24T10:43:24.185Z,22.27
2019-02-24T10:45:57.408Z,23.50
2019-02-24T10:48:30.190Z,22.80
2019-02-24T10:51:03.309Z,22.63
2019-02-24T10:53:36.249Z,21.03
2019-02-24T10:56:09.362Z,23.73
2019-02-24T10:58:42.193Z,27.07
2019-02-24T11:01:15.130Z,21.23
2019-02-24T11:03:48.130Z,21.47
2019-02-24T11:06:20.957Z,19.43
2019-02-24T11:08:53.856Z,17.87
2019-02-24T11:11:26.751Z,16.90
2019-02-24T11:13:59.532Z,14.63
2019-02-24T11:16:32.319Z,17.47
2019-02-24T11:19:05.156Z,13.73
2019-02-24T11:21:38.011Z,13.53
2019-02-24T11:24:10.866Z,13.40
2019-02-24T11:26:43.721Z,12.60
2019-02-24T11:29:16.756Z,13.40
2019-02-24T11:31:50.746Z,12.20
2019-02-24T11:34:24.780Z,12.93
2019-02-24T11:36:57.570Z,12.53
2019-02-24T11:39:30.501Z,12.90
2019-02-24T11:42:03.546Z,12.30
2019-02-24T11:44:36.607Z,11.40
2019-02-24T11:47:09.550Z,11.93
2019-02-24T11:49:42.319Z,11.73
2019-02-24T11:52:15.372Z,11.23
2019-02-24T11:54:50.043Z,11.07
2019-02-24T11:57:22.908Z,11.13
2019-02-24T11:59:56.298Z,10.60
2019-02-24T12:02:34.464Z,10.90
2019-02-24T12:05:05.751Z,10.03
2019-02-24T12:07:42.565Z,10.93
2019-02-24T12:10:16.517Z,10.33
2019-02-24T12:12:49.486Z,10.67
2019-02-24T12:15:22.581Z,9.87
2019-02-24T12:17:56.061Z,9.60
2019-02-24T12:20:28.986Z,9.17
2019-02-24T12:23:01.993Z,9.97
2019-02-24T12:25:34.907Z,10.37
2019-02-24T12:28:07.802Z,9.60
2019-02-24T12:30:40.744Z,10.47
2019-02-24T12:33:13.406Z,10.20
2019-02-24T12:35:48.158Z,10.17
2019-02-24T12:38:22.364Z,10.30
2019-02-24T12:40:55.574Z,10.13
2019-02-24T12:43:28.458Z,9.20
2019-02-24T12:46:03.846Z,10.43
2019-02-24T12:48:36.645Z,10.27
2019-02-24T12:51:09.520Z,10.70
2019-02-24T12:53:42.324Z,9.93
2019-02-24T12:56:15.077Z,10.87
2019-02-24T12:58:48.148Z,10.47
2019-02-24T13:01:21.049Z,9.90
2019-02-24T13:03:54.066Z,10.23
2019-02-24T13:06:26.833Z,9.00
2019-02-24T13:08:59.910Z,9.23
2019-02-24T13:11:32.895Z,9.03
2019-02-24T13:14:05.947Z,8.10
2019-02-24T13:16:38.793Z,9.07
2019-02-24T13:19:11.643Z,7.37
2019-02-24T13:21:44.391Z,7.20
2019-02-24T13:24:18.958Z,7.10
2019-02-24T13:26:51.888Z,7.33
2019-02-24T13:29:24.807Z,7.10
2019-02-24T13:31:57.768Z,6.47
2019-02-24T13:34:31.703Z,6.23
2019-02-24T13:37:04.591Z,7.33
2019-02-24T13:39:37.483Z,6.30
2019-02-24T13:42:11.100Z,7.33
2019-02-24T13:44:44.006Z,7.67
2019-02-24T13:47:16.791Z,9.00
2019-02-24T13:49:49.548Z,6.97
2019-02-24T13:52:22.266Z,7.40
2019-02-24T13:54:55.049Z,6.57
2019-02-24T13:57:28.203Z,6.00
2019-02-24T14:00:00.952Z,6.43
2019-02-24T14:02:35.404Z,6.10
2019-02-24T14:05:08.185Z,6.17
2019-02-24T14:07:40.991Z,5.93
2019-02-24T14:10:14.134Z,6.83
2019-02-24T14:12:47.222Z,5.60
2019-02-24T14:15:20.163Z,6.20
2019-02-24T14:17:53.007Z,6.10
2019-02-24T14:20:25.746Z,6.00
2019-02-24T14:22:58.653Z,5.67
2019-02-24T14:25:31.458Z,6.03
2019-02-24T14:28:04.272Z,5.03
2019-02-24T14:30:36.972Z,6.03
2019-02-24T14:33:11.143Z,5.70
2019-02-24T14:35:43.868Z,5.80
2019-02-24T14:38:16.812Z,7.60
2019-02-24T14:40:49.669Z,5.87
2019-02-24T14:43:22.493Z,6.40
2019-02-24T14:45:56.184Z,5.87
2019-02-24T14:48:29.104Z,7.10
2019-02-24T14:51:01.988Z,6.07
2019-02-24T14:53:37.094Z,6.90
2019-02-24T14:56:09.974Z,6.23
2019-02-24T14:58:42.852Z,6.17
2019-02-24T15:01:16.098Z,6.97
2019-02-24T15:03:48.988Z,6.50
2019-02-24T15:06:21.779Z,6.10
2019-02-24T15:08:54.535Z,6.50
2019-02-24T15:11:30.056Z,5.83
2019-02-24T15:14:02.933Z,6.77
2019-02-24T15:16:35.767Z,6.67
2019-02-24T15:19:08.588Z,6.23
2019-02-24T15:21:41.424Z,6.17
2019-02-24T15:24:15.259Z,6.97
2019-02-24T15:26:48.049Z,7.33
2019-02-24T15:29:21.908Z,8.07
2019-02-24T15:31:54.637Z,8.80
2019-02-24T15:34:27.384Z,8.13
2019-02-24T15:37:00.301Z,8.23
2019-02-24T15:39:33.321Z,8.30
2019-02-24T15:42:06.405Z,7.87
2019-02-24T15:44:40.978Z,7.23
2019-02-24T15:47:13.987Z,8.80
2019-02-24T15:49:47.624Z,6.87
2019-02-24T15:52:20.631Z,8.47
2019-02-24T15:55:00.028Z,7.70
2019-02-24T15:57:33.174Z,7.93
2019-02-24T16:00:08.985Z,7.17
2019-02-24T16:02:42.505Z,8.07
2019-02-24T16:05:15.547Z,9.30
2019-02-24T16:07:50.733Z,9.77
2019-02-24T16:10:23.832Z,10.07
2019-02-24T16:12:56.964Z,10.73
2019-02-24T16:15:32.718Z,11.17
2019-02-24T16:18:05.970Z,12.53
2019-02-24T16:20:39.056Z,12.60
2019-02-24T16:23:12.200Z,12.53
2019-02-24T16:25:45.065Z,13.13
2019-02-24T16:28:17.868Z,14.50
2019-02-24T16:30:50.607Z,14.63
2019-02-24T16:33:23.681Z,14.80
2019-02-24T16:35:56.813Z,13.90
2019-02-24T16:38:29.585Z,14.23
2019-02-24T16:41:02.329Z,14.90
2019-02-24T16:43:35.305Z,15.83
2019-02-24T16:46:08.254Z,16.93
2019-02-24T16:48:41.012Z,19.40
2019-02-24T16:51:13.793Z,21.80
2019-02-24T16:53:46.679Z,19.93
2019-02-24T16:56:19.400Z,21.13
2019-02-24T16:58:52.358Z,20.40
2019-02-24T17:01:25.188Z,18.40
2019-02-24T17:03:58.224Z,17.43
2019-02-24T17:06:31.164Z,18.93
2019-02-24T17:09:04.517Z,18.10
2019-02-24T17:11:39.017Z,19.07
2019-02-24T17:14:11.846Z,17.07
2019-02-24T17:16:44.754Z,18.00
2019-02-24T17:19:17.600Z,18.87
2019-02-24T17:21:50.442Z,19.33
2019-02-24T17:24:25.026Z,19.83
2019-02-24T17:26:58.140Z,21.53
2019-02-24T17:29:31.335Z,22.33
2019-02-24T17:32:07.756Z,21.43
2019-02-24T17:34:41.486Z,22.40
2019-02-24T17:37:19.985Z,24.37
2019-02-24T17:39:49.050Z,25.93
2019-02-24T17:42:22.027Z,28.33
2019-02-24T17:44:55.065Z,28.47
2019-02-24T17:47:29.166Z,29.80
2019-02-24T17:50:02.113Z,28.83
2019-02-24T17:52:35.210Z,28.03
2019-02-24T17:55:10.038Z,29.17
2019-02-24T17:57:43.916Z,28.70
2019-02-24T18:00:24.243Z,27.03
2019-02-24T18:02:57.889Z,26.20
2019-02-24T18:05:31.046Z,22.23
2019-02-24T18:08:06.850Z,20.00
2019-02-24T18:10:39.950Z,21.87
2019-02-24T18:13:12.894Z,25.93
2019-02-24T18:15:45.670Z,26.87
2019-02-24T18:18:18.481Z,25.87
2019-02-24T18:20:51.399Z,28.13
2019-02-24T18:23:24.478Z,26.27
2019-02-24T18:25:57.273Z,27.70
2019-02-24T18:28:30.586Z,28.70
2019-02-24T18:31:03.607Z,28.93
2019-02-24T18:33:36.778Z,27.50
2019-02-24T18:36:09.646Z,28.07
2019-02-24T18:38:42.339Z,36.53
2019-02-24T18:41:15.714Z,38.93
2019-02-24T18:43:48.531Z,27.80
2019-02-24T18:46:21.478Z,27.17
2019-02-24T18:48:54.486Z,42.60
2019-02-24T18:51:27.406Z,58.17
2019-02-24T18:54:00.599Z,32.60
2019-02-24T18:56:33.561Z,45.90
2019-02-24T18:59:06.533Z,33.00
2019-02-24T19:01:39.515Z,34.73
2019-02-24T19:04:12.326Z,30.90
2019-02-24T19:06:45.155Z,30.07
2019-02-24T19:09:18.215Z,30.00
2019-02-24T19:11:51.175Z,28.93
2019-02-24T19:14:24.133Z,29.10
2019-02-24T19:16:57.312Z,27.70
2019-02-24T19:19:30.327Z,23.77
2019-02-24T19:22:03.156Z,25.57
2019-02-24T19:24:37.295Z,25.47
2019-02-24T19:27:10.258Z,24.87
2019-02-24T19:29:43.208Z,24.03
2019-02-24T19:32:16.182Z,26.00
2019-02-24T19:34:50.126Z,23.93
2019-02-24T19:37:22.959Z,23.33
2019-02-24T19:39:55.899Z,23.53
2019-02-24T19:42:28.751Z,25.63
2019-02-24T19:45:02.779Z,27.73
2019-02-24T19:47:35.755Z,29.83
2019-02-24T19:50:14.238Z,29.73
2019-02-24T19:52:47.275Z,29.87
2019-02-24T19:55:20.313Z,28.83
2019-02-24T19:57:53.225Z,28.00
2019-02-24T20:00:26.929Z,27.60
2019-02-24T20:03:02.956Z,28.67
2019-02-24T20:05:37.825Z,27.93
2019-02-24T20:08:13.006Z,26.60
2019-02-24T20:10:54.088Z,26.67
2019-02-24T20:13:41.058Z,26.63
2019-02-24T20:16:15.433Z,26.53
2019-02-24T20:18:51.109Z,26.90
2019-02-24T20:21:24.535Z,24.80
2019-02-24T20:24:03.325Z,25.20
2019-02-24T20:26:36.404Z,24.73
2019-02-24T20:29:10.504Z,24.70
2019-02-24T20:31:43.609Z,25.23
2019-02-24T20:34:24.957Z,23.37
2019-02-24T20:36:51.078Z,24.97
2019-02-24T20:39:24.065Z,25.17
2019-02-24T20:41:57.127Z,26.37
2019-02-24T20:44:30.013Z,26.53
2019-02-24T20:47:02.765Z,25.50
2019-02-24T20:49:35.713Z,23.77
2019-02-24T20:52:08.670Z,24.77
2019-02-24T20:54:41.563Z,26.53
2019-02-24T20:57:14.589Z,25.70
2019-02-24T20:59:47.365Z,26.27
2019-02-24T21:02:20.255Z,27.27
2019-02-24T21:04:53.242Z,28.03
2019-02-24T21:07:26.129Z,28.03
2019-02-24T21:09:59.041Z,26.57
2019-02-24T21:12:31.788Z,26.17
2019-02-24T21:15:04.678Z,24.97
2019-02-24T21:17:37.531Z,26.43
2019-02-24T21:20:14.283Z,27.13
2019-02-24T21:22:47.061Z,25.90
2019-02-24T21:25:19.819Z,26.03
2019-02-24T21:27:53.006Z,26.13
2019-02-24T21:30:25.908Z,28.47
2019-02-24T21:32:58.708Z,29.43
2019-02-24T21:35:31.787Z,27.43
2019-02-24T21:38:04.884Z,27.97
2019-02-24T21:40:37.789Z,28.53
2019-02-24T21:43:10.650Z,29.13
2019-02-24T21:45:43.508Z,28.00
2019-02-24T21:48:16.397Z,28.13
2019-02-24T21:50:49.271Z,27.67
2019-02-24T21:53:22.020Z,28.43
2019-02-24T21:55:54.881Z,25.80
2019-02-24T21:58:28.059Z,26.67
2019-02-24T22:01:01.023Z,25.60
2019-02-24T22:03:35.003Z,24.47
2019-02-24T22:06:07.995Z,23.63
2019-02-24T22:08:40.864Z,22.80
2019-02-24T22:11:13.705Z,24.53
2019-02-24T22:13:46.398Z,22.40
2019-02-24T22:16:20.275Z,24.37
2019-02-24T22:18:53.074Z,23.27
2019-02-24T22:21:25.857Z,22.20
2019-02-24T22:23:58.704Z,24.30
2019-02-24T22:26:31.449Z,22.37
2019-02-24T22:29:05.151Z,23.67
2019-02-24T22:31:37.955Z,27.07
2019-02-24T22:34:10.797Z,26.57
2019-02-24T22:36:43.512Z,26.13
2019-02-24T22:39:16.245Z,25.00
2019-02-24T22:41:48.910Z,25.37
2019-02-24T22:44:21.700Z,24.97
2019-02-24T22:46:54.396Z,26.40
2019-02-24T22:49:27.218Z,24.67
2019-02-24T22:52:00.010Z,24.00
2019-02-24T22:54:32.791Z,22.70
2019-02-24T22:57:05.542Z,22.50
2019-02-24T22:59:38.341Z,21.27
2019-02-24T23:02:11.287Z,22.93
2019-02-24T23:04:44.618Z,23.30
2019-02-24T23:07:17.491Z,23.40
2019-02-24T23:09:50.256Z,23.63
2019-02-24T23:12:22.998Z,21.07
2019-02-24T23:14:57.292Z,22.63
2019-02-24T23:17:30.012Z,21.83
2019-02-24T23:20:02.823Z,21.60
2019-02-24T23:22:37.301Z,21.73
2019-02-24T23:25:10.110Z,20.40
2019-02-24T23:27:44.037Z,19.87
2019-02-24T23:30:17.160Z,18.57
2019-02-24T23:32:49.979Z,18.77
2019-02-24T23:35:22.724Z,18.87
2019-02-24T23:37:55.443Z,17.37
2019-02-24T23:40:28.297Z,18.63
2019-02-24T23:43:02.126Z,17.10
2019-02-24T23:45:34.932Z,18.10
2019-02-24T23:48:07.790Z,18.00
2019-02-24T23:50:40.541Z,18.13
2019-02-24T23:53:13.370Z,18.77
2019-02-24T23:55:46.144Z,19.13
2019-02-24T23:58:18.862Z,21.03
